sensor_id;sensor_type;location;lat;lon;timestamp;P1;durP1;ratioP1;P2;durP2;ratioP2
29238;SDS011;16267;48.194;11.546;2023-05-02T00:00:26;4.38;;;3.42;;
29238;SDS011;16267;48.194;11.546;2023-05-02T00:02:53;6.20;;;3.33;;
29238;SDS011;16267;48.194;11.546;2023-05-02T00:05:19;4.65;;;3.03;;
29238;SDS011;16267;48.194;11.546;2023-05-02T00:07:45;3.47;;;2.92;;
29238;SDS011;16267;48.194;11.546;2023-05-02T00:10:11;6.07;;;3.10;;
29238;SDS011;16267;48.194;11.546;2023-05-02T00:12:37;5.18;;;3.38;;
29238;SDS011;16267;48.194;11.546;2023-05-02T00:15:03;4.97;;;3.03;;
29238;SDS011;16267;48.194;11.546;2023-05-02T00:17:30;5.40;;;3.03;;
29238;SDS011;16267;48.194;11.546;2023-05-02T00:19:56;4.57;;;3.30;;
29238;SDS011;16267;48.194;11.546;2023-05-02T00:22:22;3.92;;;2.92;;
29238;SDS011;16267;48.194;11.546;2023-05-02T00:24:47;7.18;;;3.30;;
29238;SDS011;16267;48.194;11.546;2023-05-02T00:27:13;3.60;;;3.15;;
29238;SDS011;16267;48.194;11.546;2023-05-02T00:29:39;4.57;;;3.47;;
29238;SDS011;16267;48.194;11.546;2023-05-02T00:32:05;5.03;;;3.80;;
29238;SDS011;16267;48.194;11.546;2023-05-02T00:34:31;4.35;;;3.13;;
29238;SDS011;16267;48.194;11.546;2023-05-02T00:36:57;5.40;;;3.05;;
29238;SDS011;16267;48.194;11.546;2023-05-02T00:39:23;5.95;;;3.40;;
29238;SDS011;16267;48.194;11.546;2023-05-02T00:41:55;3.92;;;3.13;;
29238;SDS011;16267;48.194;11.546;2023-05-02T00:44:22;4.22;;;3.20;;
29238;SDS011;16267;48.194;11.546;2023-05-02T00:46:47;9.15;;;3.25;;
29238;SDS011;16267;48.194;11.546;2023-05-02T00:49:13;3.40;;;3.10;;
29238;SDS011;16267;48.194;11.546;2023-05-02T00:51:39;6.07;;;2.65;;
29238;SDS011;16267;48.194;11.546;2023-05-02T00:54:05;3.65;;;2.97;;
29238;SDS011;16267;48.194;11.546;2023-05-02T00:56:31;3.40;;;2.70;;
29238;SDS011;16267;48.194;11.546;2023-05-02T00:58:56;3.15;;;2.70;;
29238;SDS011;16267;48.194;11.546;2023-05-02T01:01:35;4.80;;;2.63;;
29238;SDS011;16267;48.194;11.546;2023-05-02T01:13:28;3.65;;;2.70;;
29238;SDS011;16267;48.194;11.546;2023-05-02T01:15:59;2.60;;;2.40;;
29238;SDS011;16267;48.194;11.546;2023-05-02T01:18:29;7.28;;;2.50;;
29238;SDS011;16267;48.194;11.546;2023-05-02T01:21:02;5.15;;;2.60;;
29238;SDS011;16267;48.194;11.546;2023-05-02T01:29:46;3.38;;;2.50;;
29238;SDS011;16267;48.194;11.546;2023-05-02T01:32:15;3.13;;;2.70;;
29238;SDS011;16267;48.194;11.546;2023-05-02T01:34:42;2.72;;;2.40;;
29238;SDS011;16267;48.194;11.546;2023-05-02T01:37:12;5.63;;;3.00;;
29238;SDS011;16267;48.194;11.546;2023-05-02T01:39:41;3.53;;;2.67;;
29238;SDS011;16267;48.194;11.546;2023-05-02T01:42:08;3.00;;;2.67;;
29238;SDS011;16267;48.194;11.546;2023-05-02T01:44:37;3.42;;;2.28;;
29238;SDS011;16267;48.194;11.546;2023-05-02T01:47:05;4.82;;;2.70;;
29238;SDS011;16267;48.194;11.546;2023-05-02T01:49:33;3.53;;;2.80;;
29238;SDS011;16267;48.194;11.546;2023-05-02T01:52:02;7.45;;;3.15;;
29238;SDS011;16267;48.194;11.546;2023-05-02T01:54:32;5.22;;;3.05;;
29238;SDS011;16267;48.194;11.546;2023-05-02T01:57:00;4.65;;;3.17;;
29238;SDS011;16267;48.194;11.546;2023-05-02T01:59:32;4.07;;;2.55;;
29238;SDS011;16267;48.194;11.546;2023-05-02T02:02:00;3.08;;;2.78;;
29238;SDS011;16267;48.194;11.546;2023-05-02T02:04:28;3.20;;;2.90;;
29238;SDS011;16267;48.194;11.546;2023-05-02T02:07:05;3.88;;;2.72;;
29238;SDS011;16267;48.194;11.546;2023-05-02T02:09:34;3.60;;;2.70;;
29238;SDS011;16267;48.194;11.546;2023-05-02T02:12:11;4.38;;;2.70;;
29238;SDS011;16267;48.194;11.546;2023-05-02T02:14:47;4.45;;;3.15;;
29238;SDS011;16267;48.194;11.546;2023-05-02T02:17:29;3.40;;;2.50;;
29238;SDS011;16267;48.194;11.546;2023-05-02T02:20:02;4.55;;;3.10;;
29238;SDS011;16267;48.194;11.546;2023-05-02T02:22:33;3.60;;;2.75;;
29238;SDS011;16267;48.194;11.546;2023-05-02T02:25:04;4.90;;;3.13;;
29238;SDS011;16267;48.194;11.546;2023-05-02T02:27:32;3.75;;;2.75;;
29238;SDS011;16267;48.194;11.546;2023-05-02T02:29:58;3.55;;;2.90;;
29238;SDS011;16267;48.194;11.546;2023-05-02T02:32:25;3.88;;;2.72;;
29238;SDS011;16267;48.194;11.546;2023-05-02T02:34:50;3.15;;;2.63;;
29238;SDS011;16267;48.194;11.546;2023-05-02T02:37:22;4.60;;;3.15;;
29238;SDS011;16267;48.194;11.546;2023-05-02T02:54:32;3.55;;;3.03;;
29238;SDS011;16267;48.194;11.546;2023-05-02T02:57:25;4.60;;;2.90;;
29238;SDS011;16267;48.194;11.546;2023-05-02T03:00:06;3.08;;;2.78;;
29238;SDS011;16267;48.194;11.546;2023-05-02T03:02:38;3.10;;;2.80;;
29238;SDS011;16267;48.194;11.546;2023-05-02T03:05:07;3.50;;;3.13;;
29238;SDS011;16267;48.194;11.546;2023-05-02T03:07:34;3.33;;;3.03;;
29238;SDS011;16267;48.194;11.546;2023-05-02T03:10:02;5.32;;;3.42;;
29238;SDS011;16267;48.194;11.546;2023-05-02T03:12:29;5.25;;;2.95;;
29238;SDS011;16267;48.194;11.546;2023-05-02T03:15:02;3.85;;;3.35;;
29238;SDS011;16267;48.194;11.546;2023-05-02T03:20:04;3.55;;;2.90;;
29238;SDS011;16267;48.194;11.546;2023-05-02T03:22:30;5.50;;;3.28;;
29238;SDS011;16267;48.194;11.546;2023-05-02T03:24:59;3.38;;;3.05;;
29238;SDS011;16267;48.194;11.546;2023-05-02T03:27:25;3.10;;;2.67;;
29238;SDS011;16267;48.194;11.546;2023-05-02T03:29:52;3.60;;;2.83;;
29238;SDS011;16267;48.194;11.546;2023-05-02T03:32:18;3.75;;;3.20;;
29238;SDS011;16267;48.194;11.546;2023-05-02T03:34:43;3.75;;;3.10;;
29238;SDS011;16267;48.194;11.546;2023-05-02T03:37:09;3.40;;;3.03;;
29238;SDS011;16267;48.194;11.546;2023-05-02T03:39:35;3.70;;;2.60;;
29238;SDS011;16267;48.194;11.546;2023-05-02T03:42:00;5.57;;;3.30;;
29238;SDS011;16267;48.194;11.546;2023-05-02T03:44:26;3.50;;;3.00;;
29238;SDS011;16267;48.194;11.546;2023-05-02T03:46:52;3.35;;;2.80;;
29238;SDS011;16267;48.194;11.546;2023-05-02T03:49:18;3.22;;;2.92;;
29238;SDS011;16267;48.194;11.546;2023-05-02T03:51:43;3.95;;;3.38;;
29238;SDS011;16267;48.194;11.546;2023-05-02T03:54:09;3.45;;;2.92;;
29238;SDS011;16267;48.194;11.546;2023-05-02T03:56:35;5.22;;;3.10;;
29238;SDS011;16267;48.194;11.546;2023-05-02T03:59:01;6.70;;;3.45;;
29238;SDS011;16267;48.194;11.546;2023-05-02T04:01:28;4.47;;;3.50;;
29238;SDS011;16267;48.194;11.546;2023-05-02T04:03:53;7.13;;;3.85;;
29238;SDS011;16267;48.194;11.546;2023-05-02T04:06:19;4.22;;;3.22;;
29238;SDS011;16267;48.194;11.546;2023-05-02T04:08:45;6.40;;;3.17;;
29238;SDS011;16267;48.194;11.546;2023-05-02T04:11:11;5.35;;;2.80;;
29238;SDS011;16267;48.194;11.546;2023-05-02T04:13:36;4.32;;;3.13;;
29238;SDS011;16267;48.194;11.546;2023-05-02T04:16:02;4.22;;;3.03;;
29238;SDS011;16267;48.194;11.546;2023-05-02T04:18:28;4.43;;;2.63;;
29238;SDS011;16267;48.194;11.546;2023-05-02T04:20:55;3.03;;;2.72;;
29238;SDS011;16267;48.194;11.546;2023-05-02T04:23:20;3.58;;;3.08;;
29238;SDS011;16267;48.194;11.546;2023-05-02T04:25:55;4.85;;;3.20;;
29238;SDS011;16267;48.194;11.546;2023-05-02T04:28:21;3.63;;;3.22;;
29238;SDS011;16267;48.194;11.546;2023-05-02T04:30:47;3.55;;;3.00;;
29238;SDS011;16267;48.194;11.546;2023-05-02T04:33:14;3.92;;;3.03;;
29238;SDS011;16267;48.194;11.546;2023-05-02T04:35:40;4.45;;;2.65;;
29238;SDS011;16267;48.194;11.546;2023-05-02T04:38:06;2.88;;;2.55;;
29238;SDS011;16267;48.194;11.546;2023-05-02T04:40:32;4.85;;;2.70;;
29238;SDS011;16267;48.194;11.546;2023-05-02T04:42:58;6.13;;;3.17;;
29238;SDS011;16267;48.194;11.546;2023-05-02T04:45:24;4.72;;;2.97;;
29238;SDS011;16267;48.194;11.546;2023-05-02T04:47:50;7.85;;;2.88;;
29238;SDS011;16267;48.194;11.546;2023-05-02T04:50:16;5.10;;;2.90;;
29238;SDS011;16267;48.194;11.546;2023-05-02T04:52:42;3.22;;;2.78;;
29238;SDS011;16267;48.194;11.546;2023-05-02T04:55:07;4.30;;;2.95;;
29238;SDS011;16267;48.194;11.546;2023-05-02T04:57:33;4.25;;;3.30;;
29238;SDS011;16267;48.194;11.546;2023-05-02T04:59:59;4.50;;;3.20;;
29238;SDS011;16267;48.194;11.546;2023-05-02T05:02:25;4.30;;;3.90;;
29238;SDS011;16267;48.194;11.546;2023-05-02T05:04:51;4.50;;;3.40;;
29238;SDS011;16267;48.194;11.546;2023-05-02T05:07:17;4.00;;;3.60;;
29238;SDS011;16267;48.194;11.546;2023-05-02T05:09:42;6.53;;;3.60;;
29238;SDS011;16267;48.194;11.546;2023-05-02T05:12:08;8.05;;;3.45;;
29238;SDS011;16267;48.194;11.546;2023-05-02T05:14:34;6.40;;;3.53;;
29238;SDS011;16267;48.194;11.546;2023-05-02T05:16:59;6.10;;;3.08;;
29238;SDS011;16267;48.194;11.546;2023-05-02T05:19:25;7.50;;;3.70;;
29238;SDS011;16267;48.194;11.546;2023-05-02T05:21:51;5.28;;;3.80;;
29238;SDS011;16267;48.194;11.546;2023-05-02T05:24:17;3.95;;;3.45;;
29238;SDS011;16267;48.194;11.546;2023-05-02T05:26:43;5.28;;;3.22;;
29238;SDS011;16267;48.194;11.546;2023-05-02T05:29:09;3.80;;;3.05;;
29238;SDS011;16267;48.194;11.546;2023-05-02T05:31:35;4.05;;;3.55;;
29238;SDS011;16267;48.194;11.546;2023-05-02T05:34:01;4.85;;;4.25;;
29238;SDS011;16267;48.194;11.546;2023-05-02T05:36:28;4.80;;;3.88;;
29238;SDS011;16267;48.194;11.546;2023-05-02T05:38:55;4.75;;;3.97;;
29238;SDS011;16267;48.194;11.546;2023-05-02T05:41:21;6.18;;;4.20;;
29238;SDS011;16267;48.194;11.546;2023-05-02T05:43:47;5.68;;;4.25;;
29238;SDS011;16267;48.194;11.546;2023-05-02T05:46:12;4.53;;;3.80;;
29238;SDS011;16267;48.194;11.546;2023-05-02T05:48:38;5.88;;;4.32;;
29238;SDS011;16267;48.194;11.546;2023-05-02T05:51:04;6.60;;;4.57;;
29238;SDS011;16267;48.194;11.546;2023-05-02T05:53:30;5.22;;;3.90;;
29238;SDS011;16267;48.194;11.546;2023-05-02T05:55:57;4.40;;;3.90;;
29238;SDS011;16267;48.194;11.546;2023-05-02T05:58:23;5.65;;;4.60;;
29238;SDS011;16267;48.194;11.546;2023-05-02T06:00:48;7.20;;;4.47;;
29238;SDS011;16267;48.194;11.546;2023-05-02T06:03:14;5.93;;;4.43;;
29238;SDS011;16267;48.194;11.546;2023-05-02T06:05:41;6.97;;;4.60;;
29238;SDS011;16267;48.194;11.546;2023-05-02T06:08:06;6.40;;;4.85;;
29238;SDS011;16267;48.194;11.546;2023-05-02T06:10:32;6.05;;;4.80;;
29238;SDS011;16267;48.194;11.546;2023-05-02T06:12:58;5.30;;;4.65;;
29238;SDS011;16267;48.194;11.546;2023-05-02T06:15:24;5.43;;;4.55;;
29238;SDS011;16267;48.194;11.546;2023-05-02T06:17:50;5.53;;;4.72;;
29238;SDS011;16267;48.194;11.546;2023-05-02T06:20:16;4.95;;;4.32;;
29238;SDS011;16267;48.194;11.546;2023-05-02T06:22:42;10.77;;;4.88;;
29238;SDS011;16267;48.194;11.546;2023-05-02T06:25:08;6.50;;;5.40;;
29238;SDS011;16267;48.194;11.546;2023-05-02T06:27:34;7.65;;;4.95;;
29238;SDS011;16267;48.194;11.546;2023-05-02T06:29:59;6.95;;;5.40;;
29238;SDS011;16267;48.194;11.546;2023-05-02T06:32:29;6.22;;;4.97;;
29238;SDS011;16267;48.194;11.546;2023-05-02T06:34:55;9.35;;;4.90;;
29238;SDS011;16267;48.194;11.546;2023-05-02T06:37:21;8.98;;;5.00;;
29238;SDS011;16267;48.194;11.546;2023-05-02T06:39:48;6.55;;;5.07;;
29238;SDS011;16267;48.194;11.546;2023-05-02T06:42:13;6.68;;;4.97;;
29238;SDS011;16267;48.194;11.546;2023-05-02T06:44:39;8.68;;;5.00;;
29238;SDS011;16267;48.194;11.546;2023-05-02T06:47:05;7.03;;;5.60;;
29238;SDS011;16267;48.194;11.546;2023-05-02T06:49:31;6.75;;;5.70;;
29238;SDS011;16267;48.194;11.546;2023-05-02T06:51:57;9.25;;;6.07;;
29238;SDS011;16267;48.194;11.546;2023-05-02T06:54:24;8.80;;;5.40;;
29238;SDS011;16267;48.194;11.546;2023-05-02T06:56:50;7.63;;;5.57;;
29238;SDS011;16267;48.194;11.546;2023-05-02T06:59:16;6.88;;;5.57;;
29238;SDS011;16267;48.194;11.546;2023-05-02T07:01:42;9.98;;;5.72;;
29238;SDS011;16267;48.194;11.546;2023-05-02T07:04:08;7.50;;;5.85;;
29238;SDS011;16267;48.194;11.546;2023-05-02T07:06:37;9.18;;;5.72;;
29238;SDS011;16267;48.194;11.546;2023-05-02T07:09:04;9.88;;;5.53;;
29238;SDS011;16267;48.194;11.546;2023-05-02T07:11:29;8.93;;;5.47;;
29238;SDS011;16267;48.194;11.546;2023-05-02T07:13:55;11.27;;;6.07;;
29238;SDS011;16267;48.194;11.546;2023-05-02T07:16:21;8.75;;;5.93;;
29238;SDS011;16267;48.194;11.546;2023-05-02T07:18:47;8.48;;;5.65;;
29238;SDS011;16267;48.194;11.546;2023-05-02T07:21:13;11.23;;;6.13;;
29238;SDS011;16267;48.194;11.546;2023-05-02T07:23:39;8.32;;;6.43;;
29238;SDS011;16267;48.194;11.546;2023-05-02T07:26:05;8.93;;;5.88;;
29238;SDS011;16267;48.194;11.546;2023-05-02T07:28:31;6.93;;;5.82;;
29238;SDS011;16267;48.194;11.546;2023-05-02T07:30:57;8.75;;;5.55;;
29238;SDS011;16267;48.194;11.546;2023-05-02T07:33:23;7.85;;;5.93;;
29238;SDS011;16267;48.194;11.546;2023-05-02T07:35:49;7.85;;;5.50;;
29238;SDS011;16267;48.194;11.546;2023-05-02T07:38:15;8.05;;;6.30;;
29238;SDS011;16267;48.194;11.546;2023-05-02T07:40:41;9.18;;;6.25;;
29238;SDS011;16267;48.194;11.546;2023-05-02T07:43:10;12.80;;;6.78;;
29238;SDS011;16267;48.194;11.546;2023-05-02T07:45:37;7.47;;;6.15;;
29238;SDS011;16267;48.194;11.546;2023-05-02T07:48:03;8.18;;;6.45;;
29238;SDS011;16267;48.194;11.546;2023-05-02T07:50:29;6.90;;;6.05;;
29238;SDS011;16267;48.194;11.546;2023-05-02T07:52:55;10.18;;;6.35;;
29238;SDS011;16267;48.194;11.546;2023-05-02T07:55:21;11.38;;;6.60;;
29238;SDS011;16267;48.194;11.546;2023-05-02T07:57:47;8.27;;;6.00;;
29238;SDS011;16267;48.194;11.546;2023-05-02T08:00:13;15.23;;;7.07;;
29238;SDS011;16267;48.194;11.546;2023-05-02T08:02:40;10.45;;;6.35;;
29238;SDS011;16267;48.194;11.546;2023-05-02T08:05:06;8.15;;;6.53;;
29238;SDS011;16267;48.194;11.546;2023-05-02T08:07:33;10.20;;;6.55;;
29238;SDS011;16267;48.194;11.546;2023-05-02T08:10:01;9.25;;;6.55;;
29238;SDS011;16267;48.194;11.546;2023-05-02T08:12:27;10.20;;;6.38;;
29238;SDS011;16267;48.194;11.546;2023-05-02T08:14:53;9.95;;;6.53;;
29238;SDS011;16267;48.194;11.546;2023-05-02T08:17:19;10.98;;;6.93;;
29238;SDS011;16267;48.194;11.546;2023-05-02T08:19:45;9.65;;;6.40;;
29238;SDS011;16267;48.194;11.546;2023-05-02T08:22:11;10.73;;;6.43;;
29238;SDS011;16267;48.194;11.546;2023-05-02T08:24:39;8.32;;;6.10;;
29238;SDS011;16267;48.194;11.546;2023-05-02T08:27:05;8.45;;;6.00;;
29238;SDS011;16267;48.194;11.546;2023-05-02T08:29:31;9.63;;;6.80;;
29238;SDS011;16267;48.194;11.546;2023-05-02T08:31:57;8.48;;;6.25;;
29238;SDS011;16267;48.194;11.546;2023-05-02T08:34:23;8.73;;;6.55;;
29238;SDS011;16267;48.194;11.546;2023-05-02T08:36:48;8.40;;;6.13;;
29238;SDS011;16267;48.194;11.546;2023-05-02T08:39:14;6.90;;;6.07;;
29238;SDS011;16267;48.194;11.546;2023-05-02T08:41:41;7.95;;;6.88;;
29238;SDS011;16267;48.194;11.546;2023-05-02T08:44:06;8.02;;;6.00;;
29238;SDS011;16267;48.194;11.546;2023-05-02T08:46:34;9.63;;;5.97;;
29238;SDS011;16267;48.194;11.546;2023-05-02T08:49:01;12.95;;;6.68;;
29238;SDS011;16267;48.194;11.546;2023-05-02T08:51:28;10.15;;;6.40;;
29238;SDS011;16267;48.194;11.546;2023-05-02T08:53:56;12.40;;;7.13;;
29238;SDS011;16267;48.194;11.546;2023-05-02T08:56:23;7.35;;;6.57;;
29238;SDS011;16267;48.194;11.546;2023-05-02T08:58:50;10.70;;;6.75;;
29238;SDS011;16267;48.194;11.546;2023-05-02T09:01:16;7.43;;;6.40;;
29238;SDS011;16267;48.194;11.546;2023-05-02T09:03:46;9.27;;;7.20;;
29238;SDS011;16267;48.194;11.546;2023-05-02T09:06:16;9.15;;;7.00;;
29238;SDS011;16267;48.194;11.546;2023-05-02T09:08:45;8.73;;;6.73;;
29238;SDS011;16267;48.194;11.546;2023-05-02T09:11:17;8.45;;;7.40;;
29238;SDS011;16267;48.194;11.546;2023-05-02T09:16:15;10.05;;;7.13;;
29238;SDS011;16267;48.194;11.546;2023-05-02T09:18:53;8.45;;;7.20;;
29238;SDS011;16267;48.194;11.546;2023-05-02T09:24:01;7.72;;;5.97;;
29238;SDS011;16267;48.194;11.546;2023-05-02T09:26:40;8.38;;;7.07;;
29238;SDS011;16267;48.194;11.546;2023-05-02T09:29:06;13.20;;;6.55;;
29238;SDS011;16267;48.194;11.546;2023-05-02T09:31:32;9.93;;;6.47;;
29238;SDS011;16267;48.194;11.546;2023-05-02T09:34:09;10.05;;;6.57;;
29238;SDS011;16267;48.194;11.546;2023-05-02T09:36:42;12.98;;;7.25;;
29238;SDS011;16267;48.194;11.546;2023-05-02T09:39:14;8.15;;;6.35;;
29238;SDS011;16267;48.194;11.546;2023-05-02T09:41:45;9.93;;;6.65;;
29238;SDS011;16267;48.194;11.546;2023-05-02T09:44:13;12.48;;;6.22;;
29238;SDS011;16267;48.194;11.546;2023-05-02T09:46:43;9.13;;;6.22;;
29238;SDS011;16267;48.194;11.546;2023-05-02T09:49:13;9.32;;;6.40;;
29238;SDS011;16267;48.194;11.546;2023-05-02T09:51:42;9.95;;;6.45;;
29238;SDS011;16267;48.194;11.546;2023-05-02T09:54:09;8.02;;;6.30;;
29238;SDS011;16267;48.194;11.546;2023-05-02T09:56:54;9.75;;;7.10;;
29238;SDS011;16267;48.194;11.546;2023-05-02T09:59:21;8.25;;;6.93;;
29238;SDS011;16267;48.194;11.546;2023-05-02T10:01:54;13.73;;;6.70;;
29238;SDS011;16267;48.194;11.546;2023-05-02T10:04:22;8.65;;;6.38;;
29238;SDS011;16267;48.194;11.546;2023-05-02T10:06:53;8.35;;;6.75;;
29238;SDS011;16267;48.194;11.546;2023-05-02T10:09:19;10.32;;;6.75;;
29238;SDS011;16267;48.194;11.546;2023-05-02T10:11:46;7.93;;;6.30;;
29238;SDS011;16267;48.194;11.546;2023-05-02T10:14:18;9.27;;;6.50;;
29238;SDS011;16267;48.194;11.546;2023-05-02T10:19:46;11.18;;;6.53;;
29238;SDS011;16267;48.194;11.546;2023-05-02T10:22:28;11.07;;;6.60;;
29238;SDS011;16267;48.194;11.546;2023-05-02T10:24:55;8.85;;;5.97;;
29238;SDS011;16267;48.194;11.546;2023-05-02T10:27:23;7.78;;;6.45;;
29238;SDS011;16267;48.194;11.546;2023-05-02T10:29:50;7.78;;;6.97;;
29238;SDS011;16267;48.194;11.546;2023-05-02T10:32:16;6.60;;;5.68;;
29238;SDS011;16267;48.194;11.546;2023-05-02T10:34:42;9.07;;;5.90;;
29238;SDS011;16267;48.194;11.546;2023-05-02T10:37:10;8.02;;;6.47;;
29238;SDS011;16267;48.194;11.546;2023-05-02T10:39:36;7.60;;;6.75;;
29238;SDS011;16267;48.194;11.546;2023-05-02T10:42:02;8.07;;;6.85;;
29238;SDS011;16267;48.194;11.546;2023-05-02T10:44:33;9.50;;;7.03;;
29238;SDS011;16267;48.194;11.546;2023-05-02T10:47:16;9.65;;;7.00;;
29238;SDS011;16267;48.194;11.546;2023-05-02T10:49:51;10.27;;;7.35;;
29238;SDS011;16267;48.194;11.546;2023-05-02T10:55:12;10.15;;;8.20;;
29238;SDS011;16267;48.194;11.546;2023-05-02T11:00:23;12.55;;;8.55;;
29238;SDS011;16267;48.194;11.546;2023-05-02T11:02:51;10.35;;;8.45;;
29238;SDS011;16267;48.194;11.546;2023-05-02T11:05:17;10.10;;;8.65;;
29238;SDS011;16267;48.194;11.546;2023-05-02T11:07:43;9.50;;;8.43;;
29238;SDS011;16267;48.194;11.546;2023-05-02T11:12:50;13.00;;;9.23;;
29238;SDS011;16267;48.194;11.546;2023-05-02T11:17:58;11.15;;;8.80;;
29238;SDS011;16267;48.194;11.546;2023-05-02T11:20:31;12.77;;;9.38;;
29238;SDS011;16267;48.194;11.546;2023-05-02T11:25:40;10.35;;;8.13;;
29238;SDS011;16267;48.194;11.546;2023-05-02T11:28:38;10.15;;;8.98;;
29238;SDS011;16267;48.194;11.546;2023-05-02T11:31:03;10.70;;;7.65;;
29238;SDS011;16267;48.194;11.546;2023-05-02T11:33:31;11.95;;;7.90;;
29238;SDS011;16267;48.194;11.546;2023-05-02T11:35:57;12.68;;;8.65;;
29238;SDS011;16267;48.194;11.546;2023-05-02T11:38:24;9.82;;;8.00;;
29238;SDS011;16267;48.194;11.546;2023-05-02T11:40:52;10.50;;;8.48;;
29238;SDS011;16267;48.194;11.546;2023-05-02T11:43:21;9.70;;;8.00;;
29238;SDS011;16267;48.194;11.546;2023-05-02T11:45:49;8.95;;;7.35;;
29238;SDS011;16267;48.194;11.546;2023-05-02T11:48:18;9.80;;;7.78;;
29238;SDS011;16267;48.194;11.546;2023-05-02T11:53:18;9.80;;;7.82;;
29238;SDS011;16267;48.194;11.546;2023-05-02T11:58:20;10.02;;;7.43;;
29238;SDS011;16267;48.194;11.546;2023-05-02T12:00:48;8.70;;;7.35;;
29238;SDS011;16267;48.194;11.546;2023-05-02T12:05:56;12.77;;;8.65;;
29238;SDS011;16267;48.194;11.546;2023-05-02T12:08:44;10.90;;;8.38;;
29238;SDS011;16267;48.194;11.546;2023-05-02T12:11:14;12.70;;;8.07;;
29238;SDS011;16267;48.194;11.546;2023-05-02T12:13:44;11.02;;;8.15;;
29238;SDS011;16267;48.194;11.546;2023-05-02T12:16:11;12.43;;;9.18;;
29238;SDS011;16267;48.194;11.546;2023-05-02T12:18:38;12.63;;;8.60;;
29238;SDS011;16267;48.194;11.546;2023-05-02T12:21:04;10.65;;;8.05;;
29238;SDS011;16267;48.194;11.546;2023-05-02T12:23:30;12.10;;;8.95;;
29238;SDS011;16267;48.194;11.546;2023-05-02T12:25:57;10.30;;;7.75;;
29238;SDS011;16267;48.194;11.546;2023-05-02T12:28:23;11.10;;;8.55;;
29238;SDS011;16267;48.194;11.546;2023-05-02T12:30:49;11.50;;;8.60;;
29238;SDS011;16267;48.194;11.546;2023-05-02T12:33:15;16.02;;;9.07;;
29238;SDS011;16267;48.194;11.546;2023-05-02T12:35:43;9.13;;;8.15;;
29238;SDS011;16267;48.194;11.546;2023-05-02T12:38:16;12.18;;;8.70;;
29238;SDS011;16267;48.194;11.546;2023-05-02T12:40:51;8.68;;;7.78;;
29238;SDS011;16267;48.194;11.546;2023-05-02T12:43:21;14.93;;;8.20;;
29238;SDS011;16267;48.194;11.546;2023-05-02T12:45:47;10.63;;;8.57;;
29238;SDS011;16267;48.194;11.546;2023-05-02T12:50:50;11.85;;;8.38;;
29238;SDS011;16267;48.194;11.546;2023-05-02T12:53:36;10.38;;;8.30;;
29238;SDS011;16267;48.194;11.546;2023-05-02T12:56:07;12.38;;;8.30;;
29238;SDS011;16267;48.194;11.546;2023-05-02T12:58:44;9.70;;;8.13;;
29238;SDS011;16267;48.194;11.546;2023-05-02T13:01:15;10.07;;;7.60;;
29238;SDS011;16267;48.194;11.546;2023-05-02T13:03:41;8.57;;;7.40;;
29238;SDS011;16267;48.194;11.546;2023-05-02T13:06:08;9.05;;;7.40;;
29238;SDS011;16267;48.194;11.546;2023-05-02T13:08:35;11.32;;;7.97;;
29238;SDS011;16267;48.194;11.546;2023-05-02T13:11:01;11.52;;;7.90;;
29238;SDS011;16267;48.194;11.546;2023-05-02T13:13:28;11.48;;;7.70;;
29238;SDS011;16267;48.194;11.546;2023-05-02T13:15:55;7.93;;;7.13;;
29238;SDS011;16267;48.194;11.546;2023-05-02T13:18:21;8.35;;;7.22;;
29238;SDS011;16267;48.194;11.546;2023-05-02T13:20:46;10.88;;;7.38;;
29238;SDS011;16267;48.194;11.546;2023-05-02T13:23:12;10.00;;;7.22;;
29238;SDS011;16267;48.194;11.546;2023-05-02T13:25:40;10.27;;;6.80;;
29238;SDS011;16267;48.194;11.546;2023-05-02T13:28:06;9.38;;;7.13;;
29238;SDS011;16267;48.194;11.546;2023-05-02T13:30:32;8.65;;;6.80;;
29238;SDS011;16267;48.194;11.546;2023-05-02T13:32:58;10.02;;;7.00;;
29238;SDS011;16267;48.194;11.546;2023-05-02T13:35:24;9.07;;;6.10;;
29238;SDS011;16267;48.194;11.546;2023-05-02T13:37:50;6.68;;;5.68;;
29238;SDS011;16267;48.194;11.546;2023-05-02T13:40:16;11.10;;;6.25;;
29238;SDS011;16267;48.194;11.546;2023-05-02T13:42:42;7.00;;;6.18;;
29238;SDS011;16267;48.194;11.546;2023-05-02T13:45:07;7.28;;;6.40;;
29238;SDS011;16267;48.194;11.546;2023-05-02T13:47:34;8.93;;;6.47;;
29238;SDS011;16267;48.194;11.546;2023-05-02T13:50:00;7.95;;;5.97;;
29238;SDS011;16267;48.194;11.546;2023-05-02T13:52:25;9.60;;;5.53;;
29238;SDS011;16267;48.194;11.546;2023-05-02T13:54:51;6.15;;;4.50;;
29238;SDS011;16267;48.194;11.546;2023-05-02T13:57:17;6.13;;;3.72;;
29238;SDS011;16267;48.194;11.546;2023-05-02T13:59:43;5.07;;;4.35;;
29238;SDS011;16267;48.194;11.546;2023-05-02T14:02:08;8.98;;;4.28;;
29238;SDS011;16267;48.194;11.546;2023-05-02T14:04:34;4.53;;;4.10;;
29238;SDS011;16267;48.194;11.546;2023-05-02T14:07:00;6.03;;;4.03;;
29238;SDS011;16267;48.194;11.546;2023-05-02T14:09:26;6.97;;;4.95;;
29238;SDS011;16267;48.194;11.546;2023-05-02T14:11:51;6.35;;;4.57;;
29238;SDS011;16267;48.194;11.546;2023-05-02T14:14:17;9.73;;;4.78;;
29238;SDS011;16267;48.194;11.546;2023-05-02T14:16:43;11.25;;;5.45;;
29238;SDS011;16267;48.194;11.546;2023-05-02T14:19:09;10.18;;;5.00;;
29238;SDS011;16267;48.194;11.546;2023-05-02T14:21:36;6.57;;;4.55;;
29238;SDS011;16267;48.194;11.546;2023-05-02T14:24:03;8.13;;;5.00;;
29238;SDS011;16267;48.194;11.546;2023-05-02T14:26:30;7.93;;;4.95;;
29238;SDS011;16267;48.194;11.546;2023-05-02T14:28:57;8.85;;;4.20;;
29238;SDS011;16267;48.194;11.546;2023-05-02T14:31:23;9.20;;;4.47;;
29238;SDS011;16267;48.194;11.546;2023-05-02T14:33:48;6.60;;;4.00;;
29238;SDS011;16267;48.194;11.546;2023-05-02T14:36:14;7.53;;;4.00;;
29238;SDS011;16267;48.194;11.546;2023-05-02T14:38:40;6.50;;;4.50;;
29238;SDS011;16267;48.194;11.546;2023-05-02T14:41:06;15.30;;;5.20;;
29238;SDS011;16267;48.194;11.546;2023-05-02T14:43:34;6.30;;;4.55;;
29238;SDS011;16267;48.194;11.546;2023-05-02T14:46:03;10.07;;;4.60;;
29238;SDS011;16267;48.194;11.546;2023-05-02T14:48:29;10.52;;;4.65;;
29238;SDS011;16267;48.194;11.546;2023-05-02T14:50:56;5.53;;;4.15;;
29238;SDS011;16267;48.194;11.546;2023-05-02T14:53:24;8.48;;;4.45;;
29238;SDS011;16267;48.194;11.546;2023-05-02T14:55:50;9.38;;;4.53;;
29238;SDS011;16267;48.194;11.546;2023-05-02T14:58:16;6.85;;;4.35;;
29238;SDS011;16267;48.194;11.546;2023-05-02T15:00:44;6.25;;;4.38;;
29238;SDS011;16267;48.194;11.546;2023-05-02T15:03:11;7.72;;;4.20;;
29238;SDS011;16267;48.194;11.546;2023-05-02T15:05:40;6.15;;;3.92;;
29238;SDS011;16267;48.194;11.546;2023-05-02T15:08:06;5.60;;;4.32;;
29238;SDS011;16267;48.194;11.546;2023-05-02T15:10:35;8.07;;;4.03;;
29238;SDS011;16267;48.194;11.546;2023-05-02T15:13:02;4.93;;;3.85;;
29238;SDS011;16267;48.194;11.546;2023-05-02T15:15:28;6.43;;;3.83;;
29238;SDS011;16267;48.194;11.546;2023-05-02T15:17:54;6.65;;;4.45;;
29238;SDS011;16267;48.194;11.546;2023-05-02T15:20:20;4.82;;;3.60;;
29238;SDS011;16267;48.194;11.546;2023-05-02T15:22:48;9.40;;;3.92;;
29238;SDS011;16267;48.194;11.546;2023-05-02T15:25:14;7.80;;;4.10;;
29238;SDS011;16267;48.194;11.546;2023-05-02T15:27:39;8.07;;;3.90;;
29238;SDS011;16267;48.194;11.546;2023-05-02T15:30:06;12.25;;;6.10;;
29238;SDS011;16267;48.194;11.546;2023-05-02T15:32:32;17.40;;;9.15;;
29238;SDS011;16267;48.194;11.546;2023-05-02T15:34:58;7.28;;;5.10;;
29238;SDS011;16267;48.194;11.546;2023-05-02T15:37:24;6.40;;;3.92;;